createdAt,value
2019-02-28T00:01:58.830Z,51.10
2019-02-28T00:04:32.774Z,50.90
2019-02-28T00:07:02.013Z,51.20
2019-02-28T00:09:32.775Z,51.60
2019-02-28T00:12:03.524Z,52.00
2019-02-28T00:14:34.280Z,52.10
2019-02-28T00:17:06.194Z,53.10
2019-02-28T00:19:37.504Z,53.60
2019-02-28T00:22:08.190Z,53.70
2019-02-28T00:24:38.987Z,53.80
2019-02-28T00:27:09.703Z,54.30
2019-02-28T00:29:40.490Z,54.30
2019-02-28T00:32:11.204Z,54.40
2019-02-28T00:34:41.981Z,54.20
2019-02-28T00:37:31.792Z,53.80
2019-02-28T00:40:02.548Z,54.50
2019-02-28T00:42:33.284Z,54.50
2019-02-28T00:45:04.331Z,54.80
2019-02-28T00:47:35.099Z,55.10
2019-02-28T00:50:06.013Z,55.20
2019-02-28T00:52:36.750Z,55.00
2019-02-28T00:55:07.565Z,54.80
2019-02-28T00:57:38.302Z,54.80
2019-02-28T01:00:09.478Z,54.70
2019-02-28T01:02:40.215Z,54.60
2019-02-28T01:05:10.961Z,54.50
2019-02-28T01:07:41.723Z,54.20
2019-02-28T01:10:12.764Z,54.60
2019-02-28T01:12:43.460Z,54.70
2019-02-28T01:15:15.076Z,54.50
2019-02-28T01:17:45.803Z,54.80
2019-02-28T01:20:16.788Z,55.30
2019-02-28T01:22:47.790Z,55.80
2019-02-28T01:25:18.581Z,56.10
2019-02-28T01:27:52.375Z,56.20
2019-02-28T01:30:21.634Z,56.30
2019-02-28T01:32:52.380Z,56.70
2019-02-28T01:35:23.126Z,56.60
2019-02-28T01:37:53.904Z,56.90
2019-02-28T01:40:24.638Z,57.50
2019-02-28T01:42:55.405Z,57.40
2019-02-28T01:45:26.145Z,57.30
2019-02-28T01:47:56.919Z,57.30
2019-02-28T01:50:29.667Z,57.50
2019-02-28T01:53:00.021Z,57.40
2019-02-28T01:55:30.726Z,57.90
2019-02-28T01:58:01.413Z,57.20
2019-02-28T02:00:32.141Z,59.10
2019-02-28T02:03:02.907Z,59.50
2019-02-28T02:05:33.693Z,59.70
2019-02-28T02:08:07.268Z,59.80
2019-02-28T02:10:36.805Z,59.90
2019-02-28T02:13:07.531Z,59.80
2019-02-28T02:15:38.267Z,59.20
2019-02-28T02:18:09.909Z,60.20
2019-02-28T02:20:41.050Z,59.50
2019-02-28T02:23:11.806Z,60.30
2019-02-28T02:25:42.553Z,60.80
2019-02-28T02:28:13.299Z,61.30
2019-02-28T02:30:50.429Z,61.70
2019-02-28T02:33:16.442Z,61.20
2019-02-28T02:35:47.217Z,61.00
2019-02-28T02:38:17.965Z,61.50
2019-02-28T02:40:48.712Z,61.40
2019-02-28T02:43:22.138Z,61.70
2019-02-28T02:45:51.811Z,62.90
2019-02-28T02:48:22.591Z,63.30
2019-02-28T02:50:53.328Z,63.20
2019-02-28T02:53:24.062Z,63.40
2019-02-28T02:55:54.735Z,64.00
2019-02-28T02:58:27.816Z,63.90
2019-02-28T03:00:57.823Z,64.50
2019-02-28T03:03:28.564Z,64.30
2019-02-28T03:05:59.279Z,64.50
2019-02-28T03:08:35.693Z,64.70
2019-02-28T03:11:02.409Z,66.00
2019-02-28T03:13:33.146Z,64.70
2019-02-28T03:16:03.814Z,66.30
2019-02-28T03:18:34.557Z,67.50
2019-02-28T03:21:05.233Z,66.70
2019-02-28T03:23:40.199Z,66.20
2019-02-28T03:26:08.236Z,66.40
2019-02-28T03:28:38.976Z,65.60
2019-02-28T03:31:14.220Z,66.30
2019-02-28T03:33:41.996Z,66.10
2019-02-28T03:36:15.666Z,66.40
2019-02-28T03:38:49.600Z,65.40
2019-02-28T03:41:18.155Z,66.40
2019-02-28T03:43:49.132Z,66.80
2019-02-28T03:46:20.229Z,65.90
2019-02-28T03:48:51.607Z,65.60
2019-02-28T03:51:22.402Z,66.40
2019-02-28T03:53:56.015Z,65.70
2019-02-28T03:56:25.534Z,64.90
2019-02-28T03:58:56.211Z,64.60
2019-02-28T04:01:26.987Z,65.60
2019-02-28T04:03:57.684Z,65.80
2019-02-28T04:06:28.495Z,65.90
2019-02-28T04:09:07.012Z,66.40
2019-02-28T04:11:32.195Z,65.90
2019-02-28T04:14:02.990Z,66.30
2019-02-28T04:16:33.794Z,66.00
2019-02-28T04:19:04.504Z,65.70
2019-02-28T04:21:35.298Z,65.50
2019-02-28T04:24:12.393Z,66.40
2019-02-28T04:26:38.408Z,66.20
2019-02-28T04:29:09.124Z,66.10
2019-02-28T04:31:39.912Z,66.40
2019-02-28T04:34:13.448Z,66.10
2019-02-28T04:36:43.026Z,66.80
2019-02-28T04:39:13.743Z,66.70
2019-02-28T04:41:44.528Z,67.20
2019-02-28T04:44:15.434Z,67.00
2019-02-28T04:46:47.662Z,67.30
2019-02-28T04:49:37.472Z,67.40
2019-02-28T04:52:11.832Z,67.70
2019-02-28T04:54:40.605Z,68.20
2019-02-28T04:57:11.392Z,68.40
2019-02-28T04:59:42.098Z,68.70
2019-02-28T05:02:12.856Z,69.00
2019-02-28T05:04:43.540Z,69.50
2019-02-28T05:07:14.339Z,69.30
2019-02-28T05:09:45.286Z,69.40
2019-02-28T05:12:17.434Z,69.00
2019-02-28T05:14:48.176Z,70.30
2019-02-28T05:17:19.368Z,70.70
2019-02-28T05:19:51.332Z,70.70
2019-02-28T05:22:24.438Z,71.50
2019-02-28T05:24:54.482Z,71.20
2019-02-28T05:27:25.199Z,71.30
2019-02-28T05:29:55.944Z,71.90
2019-02-28T05:32:26.706Z,71.70
2019-02-28T05:34:57.467Z,72.90
2019-02-28T05:37:28.204Z,73.90
2019-02-28T05:39:58.981Z,73.60
2019-02-28T05:42:29.696Z,74.30
2019-02-28T05:45:00.421Z,74.40
2019-02-28T05:47:32.291Z,74.50
2019-02-28T05:50:03.584Z,76.60
2019-02-28T05:52:34.561Z,78.00
2019-02-28T05:55:05.579Z,77.90
2019-02-28T05:57:39.322Z,78.70
2019-02-28T06:00:09.337Z,77.80
2019-02-28T06:02:40.036Z,78.40
2019-02-28T06:05:12.033Z,79.80
2019-02-28T06:07:43.333Z,81.40
2019-02-28T06:10:14.156Z,81.90
2019-02-28T06:12:45.162Z,83.80
2019-02-28T06:15:16.007Z,84.50
2019-02-28T06:17:46.787Z,84.70
2019-02-28T06:20:18.060Z,83.40
2019-02-28T06:22:48.885Z,84.50
2019-02-28T06:25:23.954Z,84.20
2019-02-28T06:27:51.939Z,84.90
2019-02-28T06:30:22.766Z,85.50
2019-02-28T06:32:57.761Z,87.10
2019-02-28T06:35:25.870Z,89.70
2019-02-28T06:37:56.667Z,88.60
2019-02-28T06:40:32.569Z,88.90
2019-02-28T06:42:59.787Z,87.00
2019-02-28T06:45:30.553Z,87.40
2019-02-28T06:48:01.260Z,88.30
2019-02-28T06:50:32.057Z,87.20
2019-02-28T06:53:02.824Z,87.80
2019-02-28T06:55:33.579Z,84.10
2019-02-28T06:58:04.285Z,82.10
2019-02-28T07:00:34.987Z,81.00
2019-02-28T07:03:05.742Z,81.90
2019-02-28T07:05:36.515Z,80.60
2019-02-28T07:08:07.270Z,81.90
2019-02-28T07:10:38.054Z,82.90
2019-02-28T07:13:08.781Z,81.90
2019-02-28T07:15:39.558Z,82.00
2019-02-28T07:18:10.289Z,82.00
2019-02-28T07:20:41.031Z,81.50
2019-02-28T07:23:11.767Z,81.80
2019-02-28T07:25:44.306Z,81.60
2019-02-28T07:28:14.910Z,82.60
2019-02-28T07:30:45.662Z,82.70
2019-02-28T07:33:16.444Z,82.90
2019-02-28T07:35:47.219Z,83.60
2019-02-28T07:38:17.915Z,83.40
2019-02-28T07:40:49.780Z,81.70
2019-02-28T07:43:21.158Z,78.90
2019-02-28T07:45:52.268Z,74.80
2019-02-28T07:48:26.505Z,70.50
2019-02-28T07:50:55.398Z,64.30
2019-02-28T07:53:26.183Z,60.30
2019-02-28T07:55:56.969Z,60.40
2019-02-28T07:58:29.829Z,61.20
2019-02-28T08:01:00.032Z,62.90
2019-02-28T08:03:30.827Z,64.20
2019-02-28T08:06:04.482Z,65.20
2019-02-28T08:08:33.991Z,66.00
2019-02-28T08:11:04.807Z,66.20
2019-02-28T08:13:37.822Z,65.30
2019-02-28T08:16:08.062Z,66.10
2019-02-28T08:18:38.889Z,65.60
2019-02-28T08:21:09.654Z,64.30
2019-02-28T08:23:40.432Z,65.00
2019-02-28T08:26:11.235Z,64.50
2019-02-28T08:28:43.111Z,63.90
2019-02-28T08:31:13.898Z,62.60
2019-02-28T08:33:48.140Z,61.90
2019-02-28T08:36:17.371Z,61.40
2019-02-28T08:38:48.127Z,62.40
2019-02-28T08:41:18.928Z,61.40
2019-02-28T08:43:49.659Z,61.20
2019-02-28T08:46:20.405Z,61.00
2019-02-28T08:48:51.202Z,60.40
2019-02-28T08:51:23.075Z,60.10
2019-02-28T08:53:54.054Z,57.60
2019-02-28T08:56:24.804Z,57.80
2019-02-28T08:58:55.507Z,58.40
2019-02-28T09:01:26.240Z,57.80
2019-02-28T09:03:59.833Z,56.20
2019-02-28T09:06:29.326Z,53.90
2019-02-28T09:09:00.648Z,52.10
2019-02-28T09:11:31.692Z,51.10
2019-02-28T09:14:02.375Z,49.70
2019-02-28T09:16:33.003Z,48.80
2019-02-28T09:19:03.776Z,47.80
2019-02-28T09:21:34.523Z,49.20
2019-02-28T09:24:05.539Z,50.60
2019-02-28T09:26:36.286Z,50.50
2019-02-28T09:29:07.042Z,50.90
2019-02-28T09:31:39.058Z,52.10
2019-02-28T09:34:10.214Z,51.10
2019-02-28T09:36:40.962Z,51.70
2019-02-28T09:39:11.708Z,51.50
2019-02-28T09:41:42.484Z,53.70
2019-02-28T09:44:13.320Z,54.60
2019-02-28T09:46:44.068Z,56.70
2019-02-28T09:49:14.863Z,57.10
2019-02-28T09:51:45.683Z,56.90
2019-02-28T09:54:16.474Z,54.30
2019-02-28T09:56:47.262Z,52.60
2019-02-28T09:59:18.078Z,51.70
2019-02-28T10:01:48.934Z,50.70
2019-02-28T10:04:19.711Z,49.70
2019-02-28T10:06:51.534Z,49.40
2019-02-28T10:09:23.093Z,51.70
2019-02-28T10:11:53.881Z,53.10
2019-02-28T10:14:25.666Z,53.80
2019-02-28T10:16:57.099Z,53.90
2019-02-28T10:19:27.858Z,53.90
2019-02-28T10:21:58.633Z,52.80
2019-02-28T10:24:31.451Z,54.50
2019-02-28T10:27:03.443Z,53.00
2019-02-28T10:29:34.204Z,52.80
2019-02-28T10:32:06.183Z,53.00
2019-02-28T10:34:37.416Z,53.30
2019-02-28T10:37:08.113Z,54.20
2019-02-28T10:39:40.327Z,55.30
2019-02-28T10:42:11.285Z,55.20
2019-02-28T10:44:42.052Z,55.50
2019-02-28T10:47:12.818Z,55.60
2019-02-28T10:49:43.564Z,56.40
2019-02-28T10:52:14.300Z,54.60
2019-02-28T10:54:48.438Z,53.20
2019-02-28T10:57:17.443Z,54.00
2019-02-28T10:59:48.239Z,54.10
2019-02-28T11:02:20.019Z,53.90
2019-02-28T11:04:50.842Z,54.30
2019-02-28T11:07:21.592Z,53.70
2019-02-28T11:09:55.550Z,54.10
2019-02-28T11:12:26.579Z,54.10
2019-02-28T11:14:57.317Z,54.20
2019-02-28T11:17:30.491Z,53.90
2019-02-28T11:20:00.500Z,53.70
2019-02-28T11:22:31.266Z,53.70
2019-02-28T11:25:02.153Z,54.00
2019-02-28T11:27:33.198Z,54.20
2019-02-28T11:30:04.205Z,53.00
2019-02-28T11:32:34.971Z,53.10
2019-02-28T11:35:06.617Z,53.20
2019-02-28T11:37:37.714Z,53.30
2019-02-28T11:40:09.257Z,53.00
2019-02-28T11:42:40.198Z,52.60
2019-02-28T11:45:14.443Z,51.00
2019-02-28T11:47:45.351Z,49.90
2019-02-28T11:50:16.176Z,50.60
2019-02-28T11:52:46.981Z,50.10
2019-02-28T11:55:20.411Z,50.50
2019-02-28T11:57:52.340Z,50.90
2019-02-28T12:00:28.454Z,51.20
2019-02-28T12:03:00.823Z,50.50
2019-02-28T12:05:31.756Z,50.50
2019-02-28T12:08:02.488Z,50.50
2019-02-28T12:10:33.247Z,49.30
2019-02-28T12:13:04.052Z,50.60
2019-02-28T12:15:38.154Z,49.40
2019-02-28T12:18:07.616Z,48.30
2019-02-28T12:20:39.374Z,49.00
2019-02-28T12:23:10.140Z,48.80
2019-02-28T12:25:42.807Z,48.80
2019-02-28T12:28:13.311Z,48.30
2019-02-28T12:30:44.151Z,47.50
2019-02-28T12:33:15.516Z,46.50
2019-02-28T12:35:47.281Z,47.30
2019-02-28T12:38:18.047Z,46.80
2019-02-28T12:40:49.552Z,47.20
2019-02-28T12:43:20.408Z,47.60
2019-02-28T12:45:51.045Z,47.70
2019-02-28T12:48:21.793Z,48.30
2019-02-28T12:50:52.548Z,48.50
2019-02-28T12:53:25.337Z,49.20
2019-02-28T12:55:55.741Z,48.60
2019-02-28T12:58:36.463Z,48.30
2019-02-28T13:01:00.106Z,48.30
2019-02-28T13:03:31.294Z,47.70
2019-02-28T13:06:02.035Z,48.10
2019-02-28T13:08:32.872Z,49.00
2019-02-28T13:11:04.723Z,49.00
2019-02-28T13:13:35.585Z,48.70
2019-02-28T13:16:06.481Z,49.60
2019-02-28T13:18:39.678Z,50.30
2019-02-28T13:21:10.481Z,49.50
2019-02-28T13:23:42.393Z,48.00
2019-02-28T13:26:14.026Z,47.10
2019-02-28T13:28:44.776Z,45.30
2019-02-28T13:31:15.649Z,43.90
2019-02-28T13:33:48.626Z,43.20
2019-02-28T13:36:21.701Z,42.20
2019-02-28T13:38:54.678Z,42.90
2019-02-28T13:41:26.436Z,44.20
2019-02-28T13:43:59.420Z,45.40
2019-02-28T13:46:32.371Z,46.00
2019-02-28T13:49:00.671Z,45.90
2019-02-28T13:51:32.646Z,49.20
2019-02-28T13:54:06.490Z,52.60
2019-02-28T13:56:36.044Z,55.10
2019-02-28T13:59:06.830Z,55.50
2019-02-28T14:01:37.609Z,54.50
2019-02-28T14:04:08.363Z,53.90
2019-02-28T14:06:39.129Z,52.10
2019-02-28T14:09:09.878Z,52.50
2019-02-28T14:11:41.886Z,53.20
2019-02-28T14:14:13.061Z,53.40
2019-02-28T14:16:43.815Z,54.00
2019-02-28T14:19:16.716Z,54.10
2019-02-28T14:21:46.958Z,55.30
2019-02-28T14:24:17.724Z,55.60
2019-02-28T14:26:49.511Z,55.90
2019-02-28T14:29:20.856Z,56.00
2019-02-28T14:31:51.582Z,56.60
2019-02-28T14:34:25.976Z,56.60
2019-02-28T14:36:54.685Z,56.70
2019-02-28T14:39:25.424Z,56.80
2019-02-28T14:41:56.148Z,56.10
2019-02-28T14:44:27.959Z,55.80
2019-02-28T14:46:59.320Z,56.10
2019-02-28T14:49:30.087Z,56.40
2019-02-28T14:52:03.641Z,56.90
2019-02-28T14:54:33.280Z,56.00
2019-02-28T14:57:03.936Z,57.00
2019-02-28T14:59:34.701Z,57.80
2019-02-28T15:02:05.409Z,58.70
2019-02-28T15:04:36.165Z,58.30
2019-02-28T15:07:06.961Z,57.90
2019-02-28T15:09:37.676Z,58.00
2019-02-28T15:12:08.562Z,58.90
2019-02-28T15:14:40.614Z,58.50
2019-02-28T15:17:11.888Z,59.00
2019-02-28T15:19:42.654Z,60.00
2019-02-28T15:22:14.221Z,59.50
2019-02-28T15:24:45.791Z,60.20
2019-02-28T15:27:16.472Z,60.30
2019-02-28T15:29:47.687Z,61.00
2019-02-28T15:32:18.416Z,60.00
2019-02-28T15:34:49.180Z,61.00
2019-02-28T15:37:19.967Z,61.20
2019-02-28T15:39:50.772Z,61.40
2019-02-28T15:42:21.542Z,61.20
2019-02-28T15:44:52.296Z,61.80
2019-02-28T15:47:24.055Z,62.60
2019-02-28T15:49:54.894Z,63.50
2019-02-28T15:52:25.875Z,64.00
2019-02-28T15:55:01.970Z,64.30
2019-02-28T15:57:30.133Z,64.60
2019-02-28T16:00:01.405Z,65.30
2019-02-28T16:02:32.203Z,65.80
2019-02-28T16:05:05.206Z,66.50
2019-02-28T16:07:35.806Z,67.10
2019-02-28T16:10:07.331Z,68.20
2019-02-28T16:12:38.127Z,69.00
2019-02-28T16:15:11.865Z,68.90
2019-02-28T16:17:42.570Z,65.30
2019-02-28T16:20:13.526Z,64.50
2019-02-28T16:22:44.281Z,63.50
2019-02-28T16:25:18.130Z,63.10
2019-02-28T16:27:48.907Z,63.30
2019-02-28T16:30:19.762Z,63.70
2019-02-28T16:32:50.538Z,63.80
2019-02-28T16:35:21.275Z,64.20
2019-02-28T16:37:52.214Z,64.40
2019-02-28T16:40:26.083Z,65.20
2019-02-28T16:42:55.494Z,65.80
2019-02-28T16:45:29.670Z,66.50
2019-02-28T16:48:02.993Z,66.70
2019-02-28T16:50:33.964Z,66.90
2019-02-28T16:53:05.289Z,67.20
2019-02-28T16:55:36.164Z,67.60
2019-02-28T16:58:07.277Z,67.40
2019-02-28T17:00:39.596Z,67.70
2019-02-28T17:03:10.555Z,67.70
2019-02-28T17:05:41.332Z,67.90
2019-02-28T17:08:15.617Z,67.90
2019-02-28T17:10:45.416Z,68.00
2019-02-28T17:13:44.238Z,68.20
2019-02-28T17:16:25.166Z,68.70
2019-02-28T17:18:56.858Z,68.70
2019-02-28T17:21:28.179Z,68.60
2019-02-28T17:23:58.936Z,68.80
2019-02-28T17:26:47.478Z,69.30
2019-02-28T17:29:33.578Z,69.80
2019-02-28T17:32:04.851Z,69.80
2019-02-28T17:34:35.618Z,70.20
2019-02-28T17:37:06.465Z,70.70
2019-02-28T17:39:37.233Z,73.00
2019-02-28T17:42:08.792Z,74.40
2019-02-28T17:45:04.241Z,76.00
2019-02-28T17:48:20.696Z,77.50
2019-02-28T17:51:10.390Z,78.70
2019-02-28T17:53:59.128Z,80.20
2019-02-28T17:57:09.933Z,82.20
2019-02-28T17:59:51.352Z,82.60
2019-02-28T18:02:49.875Z,83.00
2019-02-28T18:05:45.487Z,82.20
2019-02-28T18:08:24.786Z,82.00
2019-02-28T18:11:25.349Z,82.10
2019-02-28T18:14:22.368Z,82.10
2019-02-28T18:17:32.391Z,82.30
2019-02-28T18:21:00.771Z,82.20
2019-02-28T18:23:50.869Z,82.60
2019-02-28T18:26:51.651Z,82.90
2019-02-28T18:29:51.914Z,82.80
2019-02-28T18:32:22.651Z,83.60
2019-02-28T18:34:56.194Z,84.40
2019-02-28T18:37:25.771Z,85.20
2019-02-28T18:39:56.450Z,86.40
2019-02-28T18:42:27.206Z,86.60
2019-02-28T18:44:57.972Z,87.60
2019-02-28T18:47:28.719Z,88.00
2019-02-28T18:49:59.445Z,88.70
2019-02-28T18:52:30.221Z,89.30
2019-02-28T18:55:06.008Z,90.20
2019-02-28T18:57:33.345Z,91.20
2019-02-28T19:00:04.903Z,91.70
2019-02-28T19:02:35.669Z,91.50
2019-02-28T19:05:07.265Z,91.40
2019-02-28T19:07:38.099Z,91.50
2019-02-28T19:10:09.139Z,92.10
2019-02-28T19:12:40.023Z,92.20
2019-02-28T19:15:10.858Z,92.30
2019-02-28T19:17:41.604Z,92.40
2019-02-28T19:20:12.432Z,92.40
2019-02-28T19:22:43.278Z,92.50
2019-02-28T19:25:14.045Z,92.80
2019-02-28T19:27:44.821Z,92.90
2019-02-28T19:30:15.568Z,93.00
2019-02-28T19:32:46.354Z,93.30
2019-02-28T19:35:17.098Z,93.30
2019-02-28T19:37:47.899Z,93.40
2019-02-28T19:40:18.640Z,93.30
2019-02-28T19:42:49.412Z,93.40
2019-02-28T19:45:20.183Z,93.60
2019-02-28T19:47:50.960Z,93.80
2019-02-28T19:50:21.719Z,94.00
2019-02-28T19:52:54.087Z,94.40
2019-02-28T19:55:25.018Z,94.20
2019-02-28T19:57:55.780Z,94.10
2019-02-28T20:00:26.561Z,94.40
2019-02-28T20:02:57.328Z,94.40
2019-02-28T20:05:28.083Z,95.20
2019-02-28T20:07:58.848Z,95.00
2019-02-28T20:10:29.615Z,95.20
2019-02-28T20:13:00.403Z,95.50
2019-02-28T20:15:34.272Z,95.70
2019-02-28T20:18:05.001Z,96.10
2019-02-28T20:20:35.766Z,96.40
2019-02-28T20:23:06.537Z,97.70
2019-02-28T20:25:37.366Z,96.80
2019-02-28T20:28:08.120Z,97.40
2019-02-28T20:30:38.909Z,99.50
2019-02-28T20:33:09.672Z,99.90
2019-02-28T20:35:40.628Z,99.90
2019-02-28T20:38:11.358Z,99.90
2019-02-28T20:40:42.127Z,99.90
2019-02-28T20:43:12.908Z,99.90
2019-02-28T20:45:43.993Z,99.90
2019-02-28T20:48:15.374Z,99.90
2019-02-28T20:50:46.348Z,99.90
2019-02-28T20:53:17.193Z,99.90
2019-02-28T20:55:47.942Z,99.90
2019-02-28T20:58:18.696Z,99.90
2019-02-28T21:00:49.460Z,99.90
2019-02-28T21:03:20.251Z,99.90
2019-02-28T21:05:51.014Z,99.90
2019-02-28T21:08:21.730Z,99.90
2019-02-28T21:10:52.497Z,99.90
2019-02-28T21:13:23.253Z,99.90
2019-02-28T21:15:54.119Z,99.90
2019-02-28T21:18:24.895Z,99.90
2019-02-28T21:20:55.661Z,99.90
2019-02-28T21:23:26.397Z,99.90
2019-02-28T21:25:57.435Z,99.90
2019-02-28T21:28:28.260Z,99.90
2019-02-28T21:30:58.996Z,99.90
2019-02-28T21:33:29.723Z,99.90
2019-02-28T21:36:00.515Z,99.90
2019-02-28T21:38:31.257Z,99.90
2019-02-28T21:41:01.911Z,99.90
2019-02-28T21:43:32.532Z,99.90
2019-02-28T21:46:03.276Z,99.90
2019-02-28T21:48:34.001Z,99.90
2019-02-28T21:51:04.719Z,99.90
2019-02-28T21:53:35.333Z,99.90
2019-02-28T21:56:06.059Z,99.90
2019-02-28T21:58:36.805Z,99.90
2019-02-28T22:01:07.421Z,99.90
2019-02-28T22:03:38.124Z,99.90
2019-02-28T22:06:08.845Z,99.90
2019-02-28T22:08:39.440Z,99.90
2019-02-28T22:11:10.158Z,99.90
2019-02-28T22:13:40.917Z,99.90
2019-02-28T22:16:11.641Z,99.90
2019-02-28T22:18:42.416Z,99.90
2019-02-28T22:21:13.101Z,99.90
2019-02-28T22:23:43.840Z,99.90
2019-02-28T22:26:14.544Z,99.90
2019-02-28T22:28:45.261Z,99.90
2019-02-28T22:31:40.506Z,99.90
2019-02-28T22:34:19.461Z,99.90
2019-02-28T22:36:50.178Z,99.90
2019-02-28T22:39:20.916Z,99.90
2019-02-28T22:41:53.931Z,99.90
2019-02-28T22:44:24.969Z,99.90
2019-02-28T22:46:55.653Z,99.90
2019-02-28T22:49:26.393Z,99.90
2019-02-28T22:51:57.095Z,99.90
2019-02-28T22:54:27.832Z,99.90
2019-02-28T22:56:58.458Z,99.90
2019-02-28T22:59:29.150Z,99.90
2019-02-28T23:02:00.171Z,99.90
2019-02-28T23:04:30.849Z,99.90
2019-02-28T23:07:01.494Z,99.90
2019-02-28T23:09:32.210Z,99.90
2019-02-28T23:12:03.128Z,99.90
2019-02-28T23:14:33.893Z,99.90
2019-02-28T23:17:04.600Z,99.90
2019-02-28T23:19:35.335Z,99.90
2019-02-28T23:22:05.971Z,99.90
2019-02-28T23:24:36.697Z,99.90
2019-02-28T23:27:18.337Z,99.90
2019-02-28T23:29:53.996Z,99.90
2019-02-28T23:32:46.687Z,99.90
2019-02-28T23:35:24.624Z,99.90
2019-02-28T23:37:55.250Z,99.90
2019-02-28T23:40:25.930Z,99.90
2019-02-28T23:42:56.653Z,99.90
2019-02-28T23:45:27.409Z,99.90
2019-02-28T23:47:58.115Z,99.90
2019-02-28T23:50:28.846Z,99.90
2019-02-28T23:52:59.458Z,99.90
2019-02-28T23:55:30.196Z,99.90
2019-02-28T23:58:00.921Z,99.90
